Fraser, Michigan
Current Conditions -  °F | °C
As of 7:55 PM on Tuesday 21 Oct 2014 (Local Time) from KMTC Reporting Station
Overcast Overcast  
Wind Chill: 37°   Ceiling: 1800
Heat Index: 45°   Visibility: 10mi
Dew Point: 38°   Wind: 16mph
Humidity: 79%   Direction: 350°N
Pressure: 30.12"   Gusts: NA
Location:  42.54°N, 82.95°W
Report Text: KMTC 212355Z 35014KT 10SM OVC018 07/04 A3012 RMK SLP212 T00700036 10080 20066 51020
Loading
Personal Weather Stations






























Interactive Weather Map
Tropical Storm Tracking
New forecast layout! Learn more

10-Day Weather Forecast

Advertisements
Track Severe Weather on mobile